createdAt,value
2022-11-26T00:00:19.169Z,17.33
2022-11-26T00:02:47.375Z,18.25
2022-11-26T00:05:15.568Z,18.17
2022-11-26T00:07:44.822Z,18.33
2022-11-26T00:10:19.064Z,19.38
2022-11-26T00:12:46.984Z,18.52
2022-11-26T00:15:21.034Z,19.17
2022-11-26T00:17:49.090Z,19.17
2022-11-26T00:20:17.436Z,18.77
2022-11-26T00:22:46.897Z,18.98
2022-11-26T00:25:16.152Z,18.15
2022-11-26T00:27:44.169Z,19.08
2022-11-26T00:30:16.682Z,19.20
2022-11-26T00:32:45.965Z,19.77
2022-11-26T00:35:13.949Z,19.15
2022-11-26T00:37:42.884Z,18.65
2022-11-26T00:40:24.487Z,18.85
2022-11-26T00:42:53.263Z,20.30
2022-11-26T00:45:24.558Z,19.67
2022-11-26T00:47:53.918Z,19.45
2022-11-26T00:50:22.768Z,19.20
2022-11-26T00:52:51.630Z,19.85
2022-11-26T00:55:27.745Z,19.10
2022-11-26T00:57:55.760Z,19.63
2022-11-26T01:00:25.407Z,19.38
2022-11-26T01:02:54.932Z,19.48
2022-11-26T01:05:23.782Z,19.48
2022-11-26T01:07:51.867Z,19.73
2022-11-26T01:10:21.146Z,19.67
2022-11-26T01:12:49.134Z,19.95
2022-11-26T01:15:17.190Z,19.25
2022-11-26T01:17:45.084Z,20.45
2022-11-26T01:20:25.581Z,19.63
2022-11-26T01:22:53.918Z,19.63
2022-11-26T01:25:21.922Z,19.95
2022-11-26T01:27:49.838Z,19.67
2022-11-26T01:30:21.045Z,20.40
2022-11-26T01:32:49.095Z,20.65
2022-11-26T01:35:18.546Z,19.35
2022-11-26T01:37:46.524Z,20.58
2022-11-26T01:40:28.281Z,20.95
2022-11-26T01:42:57.402Z,20.85
2022-11-26T01:45:25.304Z,20.02
2022-11-26T01:47:53.288Z,21.17
2022-11-26T01:50:53.735Z,20.60
2022-11-26T01:53:27.712Z,20.05
2022-11-26T01:55:56.986Z,20.27
2022-11-26T01:58:28.416Z,20.05
2022-11-26T02:00:56.356Z,20.08
2022-11-26T02:03:24.411Z,20.30
2022-11-26T02:05:57.066Z,19.75
2022-11-26T02:08:26.222Z,19.90
2022-11-26T02:10:54.333Z,19.98
2022-11-26T02:13:22.328Z,19.73
2022-11-26T02:15:53.837Z,20.08
2022-11-26T02:18:21.739Z,20.45
2022-11-26T02:20:54.433Z,19.60
2022-11-26T02:23:54.118Z,20.55
2022-11-26T02:26:47.829Z,19.58
2022-11-26T02:29:21.193Z,20.30
2022-11-26T02:31:52.558Z,20.13
2022-11-26T02:34:23.154Z,20.77
2022-11-26T02:36:53.489Z,19.65
2022-11-26T02:39:22.705Z,19.00
2022-11-26T02:41:51.499Z,19.55
2022-11-26T02:44:21.884Z,20.30
2022-11-26T02:46:52.420Z,19.15
2022-11-26T02:49:21.192Z,19.85
2022-11-26T02:51:49.197Z,19.85
2022-11-26T02:54:17.113Z,19.55
2022-11-26T02:56:44.982Z,19.80
2022-11-26T02:59:14.531Z,20.48
2022-11-26T03:01:45.468Z,20.27
2022-11-26T03:04:17.393Z,20.20
2022-11-26T03:06:45.367Z,19.67
2022-11-26T03:09:13.214Z,19.77
2022-11-26T03:11:41.098Z,18.45
2022-11-26T03:14:08.982Z,19.83
2022-11-26T03:16:36.895Z,19.67
2022-11-26T03:19:04.830Z,19.23
2022-11-26T03:21:34.107Z,20.00
2022-11-26T03:24:02.038Z,18.95
2022-11-26T03:26:29.916Z,19.73
2022-11-26T03:28:57.805Z,20.00
2022-11-26T03:31:25.842Z,20.38
2022-11-26T03:33:53.717Z,20.27
2022-11-26T03:36:21.564Z,19.02
2022-11-26T03:38:50.811Z,20.08
2022-11-26T03:41:18.697Z,20.67
2022-11-26T03:43:46.631Z,19.73
2022-11-26T03:46:14.589Z,19.88
2022-11-26T03:48:42.465Z,19.88
2022-11-26T03:51:10.509Z,19.80
2022-11-26T03:53:38.515Z,20.13
2022-11-26T03:56:08.537Z,19.23
2022-11-26T03:58:36.446Z,19.58
2022-11-26T04:01:08.782Z,19.73
2022-11-26T04:03:36.679Z,19.60
2022-11-26T04:06:04.733Z,20.65
2022-11-26T04:08:32.715Z,19.20
2022-11-26T04:11:00.619Z,20.30
2022-11-26T04:13:29.843Z,19.20
2022-11-26T04:15:57.721Z,20.23
2022-11-26T04:18:25.596Z,19.15
2022-11-26T04:20:53.745Z,20.60
2022-11-26T04:23:21.795Z,20.25
2022-11-26T04:25:49.786Z,18.65
2022-11-26T04:28:17.635Z,20.52
2022-11-26T04:30:46.807Z,19.92
2022-11-26T04:33:14.918Z,20.38
2022-11-26T04:35:43.181Z,19.13
2022-11-26T04:38:11.076Z,19.98
2022-11-26T04:40:39.052Z,19.80
2022-11-26T04:43:07.027Z,19.20
2022-11-26T04:45:35.050Z,19.92
2022-11-26T04:48:04.355Z,20.23
2022-11-26T04:50:32.224Z,19.13
2022-11-26T04:53:00.330Z,19.40
2022-11-26T04:55:28.301Z,19.15
2022-11-26T04:57:56.165Z,18.17
2022-11-26T05:00:24.180Z,18.55
2022-11-26T05:02:52.136Z,18.73
2022-11-26T05:05:21.445Z,20.02
2022-11-26T05:07:49.438Z,19.35
2022-11-26T05:10:17.323Z,19.30
2022-11-26T05:12:45.199Z,18.02
2022-11-26T05:15:13.159Z,18.17
2022-11-26T05:17:41.092Z,18.98
2022-11-26T05:20:10.122Z,18.35
2022-11-26T05:22:39.458Z,19.42
2022-11-26T05:25:07.886Z,18.13
2022-11-26T05:27:35.778Z,18.98
2022-11-26T05:30:03.671Z,18.35
2022-11-26T05:32:31.697Z,18.25
2022-11-26T05:35:00.359Z,18.10
2022-11-26T05:37:28.437Z,18.05
2022-11-26T05:39:57.700Z,18.80
2022-11-26T05:42:25.588Z,18.13
2022-11-26T05:44:53.460Z,18.60
2022-11-26T05:47:21.373Z,18.10
2022-11-26T05:49:49.247Z,17.23
2022-11-26T05:52:17.187Z,17.55
2022-11-26T05:54:45.186Z,17.27
2022-11-26T05:57:14.385Z,17.52
2022-11-26T05:59:42.303Z,17.08
2022-11-26T06:02:10.331Z,17.73
2022-11-26T06:04:38.557Z,17.65
2022-11-26T06:07:06.600Z,17.67
2022-11-26T06:09:34.564Z,17.23
2022-11-26T06:12:02.506Z,16.58
2022-11-26T06:14:31.727Z,17.25
2022-11-26T06:16:59.706Z,16.58
2022-11-26T06:19:27.801Z,16.98
2022-11-26T06:21:55.648Z,16.88
2022-11-26T06:24:23.494Z,16.88
2022-11-26T06:26:51.413Z,16.75
2022-11-26T06:29:22.343Z,16.60
2022-11-26T06:31:55.745Z,16.20
2022-11-26T06:34:23.720Z,15.82
2022-11-26T06:36:51.890Z,15.95
2022-11-26T06:39:19.755Z,15.90
2022-11-26T06:41:47.729Z,16.40
2022-11-26T06:44:15.632Z,15.57
2022-11-26T06:46:43.533Z,15.85
2022-11-26T06:49:12.755Z,15.95
2022-11-26T06:51:40.603Z,15.38
2022-11-26T06:54:08.478Z,15.75
2022-11-26T06:56:36.693Z,15.77
2022-11-26T06:59:04.534Z,15.38
2022-11-26T07:01:32.502Z,14.75
2022-11-26T07:04:00.654Z,14.93
2022-11-26T07:06:30.853Z,14.90
2022-11-26T07:08:59.817Z,15.85
2022-11-26T07:11:27.694Z,14.98
2022-11-26T07:13:55.645Z,15.02
2022-11-26T07:16:23.923Z,14.95
2022-11-26T07:18:55.204Z,15.55
2022-11-26T07:21:25.874Z,14.27
2022-11-26T07:23:55.092Z,14.35
2022-11-26T07:26:23.528Z,14.70
2022-11-26T07:28:51.428Z,14.93
2022-11-26T07:31:20.179Z,14.57
2022-11-26T07:33:48.133Z,14.60
2022-11-26T07:36:17.550Z,14.73
2022-11-26T07:38:45.571Z,14.73
2022-11-26T07:41:16.332Z,13.73
2022-11-26T07:43:44.466Z,13.88
2022-11-26T07:46:13.853Z,13.65
2022-11-26T07:48:41.857Z,14.27
2022-11-26T07:51:16.559Z,14.57
2022-11-26T07:53:44.434Z,13.60
2022-11-26T07:56:13.710Z,13.93
2022-11-26T07:58:41.598Z,13.73
2022-11-26T08:01:10.182Z,14.23
2022-11-26T08:03:39.788Z,13.00
2022-11-26T08:06:08.948Z,13.95
2022-11-26T08:08:36.821Z,12.90
2022-11-26T08:11:04.989Z,13.05
2022-11-26T08:13:34.219Z,13.85
2022-11-26T08:16:02.194Z,13.07
2022-11-26T08:18:30.122Z,13.82
2022-11-26T08:20:58.077Z,13.38
2022-11-26T08:23:26.197Z,13.43
2022-11-26T08:28:44.528Z,12.25
2022-11-26T08:31:13.018Z,13.02
2022-11-26T08:33:40.866Z,12.70
2022-11-26T08:36:09.592Z,12.00
2022-11-26T08:38:37.581Z,13.13
2022-11-26T08:41:06.439Z,12.63
2022-11-26T08:44:04.675Z,12.95
2022-11-26T08:46:26.084Z,12.63
2022-11-26T08:48:56.299Z,12.23
2022-11-26T08:51:24.226Z,12.38
2022-11-26T08:53:52.108Z,12.25
2022-11-26T08:56:20.015Z,12.07
2022-11-26T08:58:48.929Z,12.95
2022-11-26T09:01:18.092Z,12.27
2022-11-26T09:03:48.449Z,12.07
2022-11-26T09:06:16.337Z,12.55
2022-11-26T09:09:00.947Z,12.85
2022-11-26T09:11:28.921Z,12.50
2022-11-26T09:13:56.955Z,12.10
2022-11-26T09:16:25.034Z,12.13
2022-11-26T09:18:54.376Z,11.45
2022-11-26T09:21:22.523Z,11.98
2022-11-26T09:23:50.437Z,12.65
2022-11-26T09:26:21.119Z,12.27
2022-11-26T09:28:49.196Z,11.65
2022-11-26T09:31:17.257Z,11.77
2022-11-26T09:33:45.430Z,11.60
2022-11-26T09:36:15.447Z,11.90
2022-11-26T09:38:43.848Z,11.93
2022-11-26T09:41:14.614Z,11.40
2022-11-26T09:43:53.250Z,11.07
2022-11-26T09:46:23.121Z,12.15
2022-11-26T09:48:50.981Z,11.80
2022-11-26T09:51:20.523Z,12.00
2022-11-26T09:53:50.027Z,14.25
2022-11-26T09:56:21.442Z,13.93
2022-11-26T09:58:51.432Z,14.52
2022-11-26T10:01:20.664Z,15.20
2022-11-26T10:03:48.622Z,15.32
2022-11-26T10:06:25.736Z,16.13
2022-11-26T10:09:17.549Z,17.45
2022-11-26T10:11:49.083Z,17.08
2022-11-26T10:14:25.652Z,16.92
2022-11-26T10:17:06.975Z,17.48
2022-11-26T10:19:38.549Z,17.42
2022-11-26T10:22:21.838Z,17.20
2022-11-26T10:24:49.867Z,19.55
2022-11-26T10:27:25.051Z,18.67
2022-11-26T10:29:54.359Z,17.13
2022-11-26T10:32:24.549Z,18.50
2022-11-26T10:34:53.250Z,18.73
2022-11-26T10:37:23.238Z,17.45
2022-11-26T10:39:56.782Z,17.95
2022-11-26T10:42:27.163Z,17.40
2022-11-26T10:44:55.197Z,16.75
2022-11-26T10:47:25.354Z,16.35
2022-11-26T10:49:53.672Z,16.67
2022-11-26T10:52:24.703Z,16.73
2022-11-26T10:55:08.781Z,15.68
2022-11-26T10:57:36.938Z,16.08
2022-11-26T11:00:05.512Z,15.85
2022-11-26T11:02:34.295Z,15.40
2022-11-26T11:05:03.528Z,14.90
2022-11-26T11:07:42.758Z,15.90
2022-11-26T11:10:18.547Z,14.25
2022-11-26T11:12:49.021Z,14.95
2022-11-26T11:15:24.231Z,14.30
2022-11-26T11:17:56.163Z,14.45
2022-11-26T11:20:36.156Z,13.68
2022-11-26T11:23:18.952Z,13.63
2022-11-26T11:25:48.298Z,13.18
2022-11-26T11:28:18.233Z,13.45
2022-11-26T11:30:46.639Z,13.82
2022-11-26T11:33:21.357Z,13.82
2022-11-26T11:35:59.342Z,13.65
2022-11-26T11:38:29.599Z,13.05
2022-11-26T11:40:57.530Z,13.85
2022-11-26T11:43:26.747Z,12.98
2022-11-26T11:46:06.076Z,12.70
2022-11-26T11:48:43.307Z,12.75
2022-11-26T11:51:14.967Z,12.95
2022-11-26T11:53:47.540Z,12.18
2022-11-26T11:56:22.062Z,12.10
2022-11-26T11:58:57.002Z,12.88
2022-11-26T12:01:37.699Z,12.10
2022-11-26T12:04:19.912Z,12.68
2022-11-26T12:06:54.948Z,11.70
2022-11-26T12:09:26.781Z,11.63
2022-11-26T12:11:57.063Z,11.98
2022-11-26T12:14:26.292Z,11.90
2022-11-26T12:16:56.518Z,11.50
2022-11-26T12:19:28.707Z,11.68
2022-11-26T12:21:59.148Z,11.68
2022-11-26T12:24:33.303Z,10.77
2022-11-26T12:27:03.553Z,11.43
2022-11-26T12:29:35.145Z,12.07
2022-11-26T12:32:06.437Z,10.77
2022-11-26T12:34:35.356Z,10.75
2022-11-26T12:37:04.898Z,11.00
2022-11-26T12:39:37.989Z,10.77
2022-11-26T12:42:08.160Z,10.93
2022-11-26T12:44:38.628Z,11.15
2022-11-26T12:47:11.228Z,10.98
2022-11-26T12:49:41.755Z,11.32
2022-11-26T12:52:17.179Z,11.10
2022-11-26T12:54:50.067Z,12.73
2022-11-26T12:57:21.777Z,11.55
2022-11-26T12:59:51.220Z,12.18
2022-11-26T13:02:21.473Z,12.43
2022-11-26T13:04:49.531Z,12.50
2022-11-26T13:07:22.378Z,12.93
2022-11-26T13:10:03.878Z,11.48
2022-11-26T13:12:38.541Z,11.63
2022-11-26T13:15:10.737Z,11.95
2022-11-26T13:17:41.691Z,11.52
2022-11-26T13:20:15.735Z,11.40
2022-11-26T13:22:51.148Z,11.95
2022-11-26T13:26:00.201Z,10.80
2022-11-26T13:28:35.270Z,11.35
2022-11-26T13:31:12.608Z,11.35
2022-11-26T13:34:22.894Z,10.75
2022-11-26T13:37:15.853Z,10.73
2022-11-26T13:40:09.882Z,11.45
2022-11-26T13:42:54.759Z,11.50
2022-11-26T13:45:49.386Z,11.38
2022-11-26T13:48:18.683Z,11.00
2022-11-26T13:50:48.308Z,10.65
2022-11-26T13:53:24.996Z,10.93
2022-11-26T13:55:55.713Z,10.48
2022-11-26T13:58:27.993Z,10.85
2022-11-26T14:00:55.925Z,11.18
2022-11-26T14:03:43.571Z,11.30
2022-11-26T14:06:11.434Z,10.85
2022-11-26T14:08:40.097Z,10.55
2022-11-26T14:11:08.145Z,10.63
2022-11-26T14:13:37.355Z,10.60
2022-11-26T14:16:06.370Z,10.27
2022-11-26T14:19:01.242Z,11.07
2022-11-26T14:21:30.461Z,9.63
2022-11-26T14:23:59.817Z,10.65
2022-11-26T14:26:30.370Z,10.07
2022-11-26T14:29:06.406Z,10.32
2022-11-26T14:31:34.374Z,10.60
2022-11-26T14:34:06.435Z,9.88
2022-11-26T14:36:34.311Z,10.43
2022-11-26T14:39:06.665Z,10.18
2022-11-26T14:41:36.071Z,9.60
2022-11-26T14:44:08.990Z,10.05
2022-11-26T14:46:36.890Z,10.45
2022-11-26T14:49:05.267Z,10.63
2022-11-26T14:51:33.165Z,10.57
2022-11-26T14:54:01.052Z,9.50
2022-11-26T14:56:28.933Z,10.43
2022-11-26T14:58:58.421Z,10.00
2022-11-26T15:01:29.041Z,10.75
2022-11-26T15:03:58.332Z,10.48
2022-11-26T15:06:27.905Z,10.38
2022-11-26T15:09:10.998Z,10.35
2022-11-26T15:11:39.376Z,10.68
2022-11-26T15:14:07.285Z,10.18
2022-11-26T15:16:38.325Z,10.15
2022-11-26T15:19:06.535Z,10.43
2022-11-26T15:21:34.408Z,9.88
2022-11-26T15:24:03.594Z,10.20
2022-11-26T15:26:34.042Z,10.45
2022-11-26T15:29:01.964Z,9.73
2022-11-26T15:31:41.822Z,10.50
2022-11-26T15:34:11.105Z,10.07
2022-11-26T15:36:38.965Z,10.07
2022-11-26T15:39:08.441Z,10.77
2022-11-26T15:41:42.420Z,10.45
2022-11-26T15:44:19.633Z,10.73
2022-11-26T15:46:49.219Z,10.52
2022-11-26T15:49:20.139Z,10.40
2022-11-26T15:51:51.388Z,10.05
2022-11-26T15:54:20.727Z,9.95
2022-11-26T15:56:50.736Z,10.27
2022-11-26T15:59:18.612Z,9.70
2022-11-26T16:01:48.256Z,10.27
2022-11-26T16:04:39.538Z,10.35
2022-11-26T16:07:12.432Z,10.23
2022-11-26T16:09:40.308Z,10.38
2022-11-26T16:12:26.826Z,10.18
2022-11-26T16:14:54.721Z,10.05
2022-11-26T16:17:23.906Z,9.98
2022-11-26T16:19:52.596Z,10.35
2022-11-26T16:22:25.551Z,9.60
2022-11-26T16:25:02.482Z,10.02
2022-11-26T16:27:30.751Z,10.13
2022-11-26T16:29:59.337Z,10.02
2022-11-26T16:32:28.567Z,10.20
2022-11-26T16:34:56.513Z,10.57
2022-11-26T16:37:25.474Z,10.52
2022-11-26T16:39:54.091Z,10.55
2022-11-26T16:42:23.291Z,10.10
2022-11-26T16:44:51.216Z,10.63
2022-11-26T16:47:24.142Z,10.05
2022-11-26T16:49:53.681Z,10.02
2022-11-26T16:52:21.698Z,10.68
2022-11-26T16:54:49.736Z,10.57
2022-11-26T16:57:18.939Z,9.85
2022-11-26T16:59:48.722Z,9.95
2022-11-26T17:02:17.428Z,10.55
2022-11-26T17:04:45.439Z,9.80
2022-11-26T17:07:15.645Z,9.95
2022-11-26T17:09:43.756Z,10.00
2022-11-26T17:12:16.111Z,9.70
2022-11-26T17:14:44.023Z,9.80
2022-11-26T17:17:13.557Z,9.45
2022-11-26T17:19:41.941Z,9.77
2022-11-26T17:22:10.119Z,9.88
2022-11-26T17:24:39.749Z,9.85
2022-11-26T17:27:14.197Z,10.10
2022-11-26T17:29:44.166Z,9.63
2022-11-26T17:32:12.781Z,10.02
2022-11-26T17:34:40.684Z,10.05
2022-11-26T17:37:11.096Z,9.68
2022-11-26T17:39:40.841Z,9.55
2022-11-26T17:42:09.027Z,9.55
2022-11-26T17:44:36.856Z,9.63
2022-11-26T17:47:20.304Z,9.50
2022-11-26T17:49:48.376Z,9.32
2022-11-26T17:52:16.224Z,9.60
2022-11-26T17:54:45.616Z,10.48
2022-11-26T17:57:14.009Z,10.25
2022-11-26T17:59:42.154Z,9.43
2022-11-26T18:02:10.463Z,9.82
2022-11-26T18:04:38.452Z,9.18
2022-11-26T18:07:07.932Z,9.38
2022-11-26T18:09:35.991Z,9.43
2022-11-26T18:12:05.769Z,9.10
2022-11-26T18:14:35.500Z,9.40
2022-11-26T18:17:03.788Z,9.10
2022-11-26T18:19:31.718Z,8.55
2022-11-26T18:21:59.585Z,9.32
2022-11-26T18:24:27.473Z,9.23
2022-11-26T18:26:56.782Z,9.48
2022-11-26T18:29:26.266Z,9.43
2022-11-26T18:31:54.374Z,8.98
2022-11-26T18:34:22.309Z,8.95
2022-11-26T18:36:53.707Z,9.65
2022-11-26T18:39:22.570Z,9.18
2022-11-26T18:41:50.442Z,9.40
2022-11-26T18:44:18.377Z,9.05
2022-11-26T18:46:47.601Z,9.35
2022-11-26T18:49:15.738Z,9.25
2022-11-26T18:51:43.630Z,9.00
2022-11-26T18:54:11.531Z,9.10
2022-11-26T18:56:39.394Z,9.95
2022-11-26T18:59:07.308Z,9.27
2022-11-26T19:01:35.258Z,8.82
2022-11-26T19:04:04.582Z,9.38
2022-11-26T19:06:32.955Z,9.38
2022-11-26T19:09:02.013Z,9.40
2022-11-26T19:11:29.892Z,8.82
2022-11-26T19:13:58.032Z,9.20
2022-11-26T19:16:26.060Z,9.15
2022-11-26T19:18:54.115Z,9.60
2022-11-26T19:21:24.400Z,8.55
2022-11-26T19:23:52.447Z,8.73
2022-11-26T19:26:20.464Z,9.25
2022-11-26T19:28:48.432Z,8.63
2022-11-26T19:31:17.140Z,9.40
2022-11-26T19:33:46.245Z,9.48
2022-11-26T19:36:16.045Z,10.02
2022-11-26T19:38:45.543Z,9.23
2022-11-26T19:41:13.496Z,9.02
2022-11-26T19:43:42.682Z,8.68
2022-11-26T19:46:11.429Z,9.05
2022-11-26T19:48:39.970Z,8.70
2022-11-26T19:51:08.408Z,8.73
2022-11-26T19:53:36.587Z,9.00
2022-11-26T19:56:07.582Z,8.70
2022-11-26T19:58:36.116Z,9.07
2022-11-26T20:01:06.378Z,8.52
2022-11-26T20:03:37.416Z,8.68
2022-11-26T20:06:07.697Z,8.93
2022-11-26T20:08:35.839Z,8.70
2022-11-26T20:11:05.391Z,8.65
2022-11-26T20:13:33.307Z,8.85
2022-11-26T20:16:01.246Z,8.68
2022-11-26T20:18:29.072Z,8.65
2022-11-26T20:20:59.975Z,8.82
2022-11-26T20:23:28.015Z,8.88
2022-11-26T20:25:56.008Z,9.07
2022-11-26T20:28:25.257Z,8.80
2022-11-26T20:30:53.199Z,8.50
2022-11-26T20:33:22.630Z,8.32
2022-11-26T20:35:50.654Z,8.45
2022-11-26T20:38:18.635Z,8.45
2022-11-26T20:40:46.595Z,9.38
2022-11-26T20:43:14.458Z,8.38
2022-11-26T20:45:43.685Z,8.70
2022-11-26T20:48:11.671Z,9.00
2022-11-26T20:50:39.617Z,8.73
2022-11-26T20:53:07.558Z,8.40
2022-11-26T20:55:35.491Z,8.65
2022-11-26T20:58:03.348Z,8.85
2022-11-26T21:00:31.215Z,8.70
2022-11-26T21:03:01.001Z,8.35
2022-11-26T21:05:28.903Z,8.50
2022-11-26T21:07:56.914Z,8.48
2022-11-26T21:10:26.310Z,8.43
2022-11-26T21:12:54.131Z,8.52
2022-11-26T21:15:22.357Z,8.50
2022-11-26T21:17:50.231Z,8.63
2022-11-26T21:20:19.610Z,9.18
2022-11-26T21:22:47.470Z,8.85
2022-11-26T21:25:15.396Z,8.35
2022-11-26T21:27:43.256Z,8.27
2022-11-26T21:30:12.193Z,8.90
2022-11-26T21:32:40.023Z,8.55
2022-11-26T21:35:08.424Z,8.35
2022-11-26T21:37:37.622Z,8.30
2022-11-26T21:40:05.875Z,8.90
2022-11-26T21:42:33.658Z,7.90
2022-11-26T21:45:01.555Z,8.70
2022-11-26T21:47:29.456Z,8.68
2022-11-26T21:49:57.366Z,9.00
2022-11-26T21:52:25.243Z,8.48
2022-11-26T21:54:54.636Z,7.80
2022-11-26T21:57:23.499Z,8.85
2022-11-26T21:59:51.365Z,8.82
2022-11-26T22:02:19.311Z,8.73
2022-11-26T22:04:47.160Z,8.60
2022-11-26T22:07:15.404Z,8.55
2022-11-26T22:09:43.494Z,8.52
2022-11-26T22:12:12.847Z,8.88
2022-11-26T22:14:40.691Z,8.18
2022-11-26T22:17:08.516Z,8.57
2022-11-26T22:19:36.390Z,8.60
2022-11-26T22:22:04.467Z,8.70
2022-11-26T22:24:32.468Z,8.38
2022-11-26T22:27:00.386Z,8.77
2022-11-26T22:29:29.580Z,8.88
2022-11-26T22:31:57.459Z,9.10
2022-11-26T22:34:27.277Z,9.45
2022-11-26T22:36:55.185Z,8.57
2022-11-26T22:39:23.000Z,9.18
2022-11-26T22:41:50.844Z,8.82
2022-11-26T22:44:18.786Z,8.63
2022-11-26T22:46:48.043Z,8.98
2022-11-26T22:49:17.777Z,9.27
2022-11-26T22:51:47.244Z,8.82
2022-11-26T22:54:16.123Z,9.35
2022-11-26T22:56:43.947Z,9.18
2022-11-26T22:59:12.886Z,8.57
2022-11-26T23:01:40.819Z,9.00
2022-11-26T23:04:10.493Z,8.98
2022-11-26T23:06:38.710Z,8.73
2022-11-26T23:09:07.556Z,8.98
2022-11-26T23:11:36.249Z,9.48
2022-11-26T23:14:07.072Z,9.07
2022-11-26T23:16:35.219Z,9.20
2022-11-26T23:19:03.398Z,9.25
2022-11-26T23:21:34.174Z,8.60
2022-11-26T23:24:02.132Z,9.27
2022-11-26T23:26:31.005Z,9.35
2022-11-26T23:28:59.718Z,9.23
2022-11-26T23:31:29.664Z,9.32
2022-11-26T23:33:57.587Z,9.43
2022-11-26T23:36:25.794Z,8.98
2022-11-26T23:38:55.041Z,9.02
2022-11-26T23:41:22.923Z,9.32
2022-11-26T23:43:50.817Z,10.00
2022-11-26T23:46:19.694Z,9.48
2022-11-26T23:48:47.692Z,9.65
2022-11-26T23:51:16.905Z,9.27
2022-11-26T23:53:45.515Z,9.98
2022-11-26T23:56:15.990Z,9.85
2022-11-26T23:58:43.818Z,10.30
